Hampton, Illinois
Current Conditions -  °F | °C
As of 3:52 AM on Saturday 25 Oct 2014 (Local Time) from KDVN Reporting Station
Moderate Fog Moderate Fog  
Wind Chill: 54°   Ceiling: 200
Heat Index: 54°   Visibility: 0.25mi
Dew Point: 53°   Wind: 7mph
Humidity: 97%   Direction: 280°W
Pressure: 29.95"   Gusts: NA
Location:  41.56°N, 90.41°W
Report Text: KDVN 250852Z AUTO 28006KT 1/4SM FG VV002 12/12 A2995 RMK AO2 SLP140 T01220117 50004 TSNO
Loading
Personal Weather Stations






























Interactive Weather Map
Tropical Storm Tracking
New forecast layout! Learn more

10-Day Weather Forecast

Advertisements
Track Severe Weather on mobile